Aérodrome :
LOGIN :

S'inscrire | Disclaimer

   EN    FR    IT 

 










Légende :    VFR   VFR Marginal   IFR   IFR Intensif   IFR Très Intensif
Visi : 
Plafond : 
>= 8 km
>= 3000ft
5 à 8 km
1000 à 3000 ft
1500m à 5 km
500 à 1000 ft
800 à 1500m
200 à 500 ft
< 800m
< 200 ft
Symboles :   Orages  Brouillard  Fortes neiges  Fortes précipitations  Vent > 20 kt
SIGMETs :   Divers  Orages  Givrage  Turbulence  Onde Orograph.  Cendres Volcan.






- Altitude de l'aérodrome : 357 ft
- Code IATA : TUF


LFOT - Tours

DERNIER METAR :
  • 041400Z AUTO VRB02KT 9999 FEW012 OVC018 05/03 Q1011 TEMPO BKN010

METARs EXPIRÉS :
  • 041330Z AUTO 08003KT 9999 OVC018 04/03 Q1011 TEMPO BKN010
  • 041300Z AUTO 09005KT 9999 FEW009 OVC016 04/03 Q1011 TEMPO BKN010
  • 041230Z AUTO 08006KT 7000 BKN006 BKN011 OVC017 04/03 Q1010 TEMPO BKN010
  • 041200Z AUTO 08008KT 6000 OVC006 04/03 Q1010 NOSIG
  • 041130Z AUTO 06007KT 4800 BR OVC006 04/03 Q1010 BECMG 8000 NSW

TAF TAF LFOT
Valide du 04 à 12h jusqu'au 05 à 12h UTC


041106Z 0412/0512 06005KT 8000 SCT010 OVC016
TEMPO 0412/0512 BKN010
PROB40
TEMPO 0412/0414 BKN006
PROB40
TEMPO 0420/0508 3000 -DZ BR OVC005



MET'MAP, la Météo Aéronautique d'un coup d'oeil ! - Copyright ORBIFLY Décembre 2007 - Disclaimer

ORBIFLY MET'MAP TEAM :

Programmation & Développement : Alexandra Zaïnal
Sur une idée originale de : Baudouin d'Aumeries
Soutien technique & logistique : Manuel Goepfert
Assistance : Marc-Olivier Méhu




SOURCES & CREDITS :

   NOAA